createdAt,value
2019-03-22T00:02:43.022Z,67.7
2019-03-22T00:13:46.240Z,67.8
2019-03-22T00:24:06.530Z,68.1
2019-03-22T00:34:42.284Z,68.7
2019-03-22T00:45:58.283Z,68.4
2019-03-22T00:57:28.494Z,68.2
2019-03-22T01:08:12.611Z,68.2
2019-03-22T01:18:37.600Z,68.2
2019-03-22T01:28:51.320Z,68.8
2019-03-22T01:39:05.100Z,68.3
2019-03-22T01:49:27.910Z,68.5
2019-03-22T01:59:41.287Z,68.7
2019-03-22T02:09:55.577Z,68.8
2019-03-22T02:21:15.402Z,69.2
2019-03-22T02:32:02.428Z,68.7
2019-03-22T02:42:38.115Z,69.2
2019-03-22T02:53:26.736Z,69.3
2019-03-22T03:03:38.265Z,69.4
2019-03-22T03:14:23.855Z,69.8
2019-03-22T03:24:52.402Z,69.3
2019-03-22T03:35:06.470Z,69.4
2019-03-22T03:45:18.508Z,69.3
2019-03-22T03:55:32.053Z,69.4
2019-03-22T04:06:02.070Z,69.7
2019-03-22T04:16:47.627Z,69.2
2019-03-22T04:27:01.180Z,69.9
2019-03-22T04:37:54.034Z,69.3
2019-03-22T04:48:14.773Z,69.6
2019-03-22T04:58:33.796Z,69.4
2019-03-22T05:08:49.053Z,69.3
2019-03-22T05:19:04.531Z,69.7
2019-03-22T05:29:29.873Z,69.5
2019-03-22T05:39:33.008Z,69.9
2019-03-22T05:50:19.919Z,69.8
2019-03-22T06:01:08.342Z,70.3
2019-03-22T06:11:56.492Z,69.8
2019-03-22T06:22:16.475Z,69.8
2019-03-22T06:32:30.524Z,70.0
2019-03-22T06:42:44.803Z,70.6
2019-03-22T06:52:59.165Z,70.9
2019-03-22T07:03:12.962Z,71.1
2019-03-22T07:16:20.935Z,70.8
2019-03-22T07:27:53.631Z,71.0
2019-03-22T07:49:06.709Z,72.1
2019-03-22T07:59:23.125Z,72.3
2019-03-22T08:10:12.116Z,72.2
2019-03-22T08:20:59.495Z,72.4
2019-03-22T08:31:17.731Z,73.9
2019-03-22T08:41:38.873Z,72.1
2019-03-22T08:53:21.721Z,67.5
2019-03-22T09:04:18.196Z,63.7
2019-03-22T09:14:35.463Z,60.6
2019-03-22T09:25:26.852Z,58.5
2019-03-22T09:36:16.917Z,56.5
2019-03-22T09:47:06.019Z,54.8
2019-03-22T09:57:56.910Z,53.3
2019-03-22T10:08:48.347Z,51.6
2019-03-22T10:19:36.208Z,50.5
2019-03-22T10:29:54.571Z,49.7
2019-03-22T10:40:48.600Z,48.1
2019-03-22T10:51:06.572Z,47.3
2019-03-22T11:02:16.702Z,46.2
2019-03-22T11:13:16.850Z,43.5
2019-03-22T11:23:34.277Z,41.3
2019-03-22T11:34:24.133Z,39.2
2019-03-22T11:44:41.729Z,37.9
2019-03-22T11:55:44.099Z,40.8
2019-03-22T12:06:39.058Z,35.8
2019-03-22T12:17:31.327Z,36.7
2019-03-22T12:30:27.516Z,37.9
2019-03-22T12:48:16.754Z,34.7
2019-03-22T12:58:36.100Z,34.9
2019-03-22T13:08:57.118Z,38.4
2019-03-22T13:19:49.135Z,42.3
2019-03-22T13:30:42.967Z,46.1
2019-03-22T13:41:03.198Z,48.1
2019-03-22T13:52:06.751Z,50.1
2019-03-22T14:03:02.657Z,50.9
2019-03-22T14:13:48.877Z,51.2
2019-03-22T14:24:40.012Z,51.4
2019-03-22T14:35:33.977Z,52.0
2019-03-22T14:46:37.424Z,52.0
2019-03-22T14:57:29.358Z,52.4
2019-03-22T15:08:21.508Z,52.2
2019-03-22T15:18:36.754Z,52.2
2019-03-22T15:29:57.618Z,51.6
2019-03-22T15:40:15.392Z,50.5
2019-03-22T15:51:11.162Z,49.7
2019-03-22T16:01:59.081Z,49.0
2019-03-22T16:12:18.677Z,49.3
2019-03-22T16:22:38.509Z,49.5
2019-03-22T16:33:30.311Z,50.1
2019-03-22T16:44:21.589Z,50.5
2019-03-22T16:55:09.130Z,50.8
2019-03-22T17:05:56.650Z,50.9
2019-03-22T17:16:46.712Z,51.4
2019-03-22T17:27:49.378Z,52.1
2019-03-22T17:38:45.540Z,52.7
2019-03-22T17:49:47.774Z,53.2
2019-03-22T18:01:24.976Z,53.4
2019-03-22T18:11:41.147Z,54.0
2019-03-22T18:21:58.347Z,54.3
2019-03-22T18:32:41.004Z,54.7
2019-03-22T18:43:00.012Z,55.0
2019-03-22T18:53:16.642Z,55.6
2019-03-22T19:04:23.020Z,55.8
2019-03-22T19:15:03.949Z,56.2
2019-03-22T19:30:12.195Z,56.5
2019-03-22T19:41:22.434Z,56.3
2019-03-22T19:52:48.625Z,56.3
2019-03-22T20:03:41.030Z,56.3
2019-03-22T20:16:01.809Z,56.5
2019-03-22T20:49:55.387Z,57.2
2019-03-22T21:04:09.781Z,57.6
2019-03-22T21:24:23.321Z,56.8
2019-03-22T21:39:13.133Z,56.9
2019-03-22T22:19:34.713Z,57.2
2019-03-22T22:29:53.935Z,57.6
2019-03-22T22:41:20.871Z,57.7
2019-03-22T22:51:54.794Z,57.7
2019-03-22T23:02:10.933Z,57.8
2019-03-22T23:12:56.540Z,57.6
2019-03-22T23:24:22.396Z,58.8
2019-03-22T23:34:37.683Z,58.6
2019-03-22T23:44:51.257Z,58.7
2019-03-22T23:56:55.328Z,59.4
